Time;durP1;ratioP1;P1;durP2;ratioP2;P2;SDS_P1;SDS_P2;PMS_P1;PMS_P2;Temp;Humidity;BMP_temperature;BMP_pressure;BME280_temperature;BME280_humidity;BME280_pressure;Samples;Min_cycle;Max_cycle;Signal;HPM_P1;HPM_P2
2023/01/09 00:01:22;;;;;;;0.50;0.10;;;10.20;1.00;;;;;;4789065;29;20569;-70
2023/01/09 00:03:50;;;;;;;0.50;0.10;;;10.20;1.00;;;;;;4788459;29;20523;-70
2023/01/09 00:06:20;;;;;;;0.50;0.10;;;10.20;1.00;;;;;;4788339;29;20469;-71
2023/01/09 00:08:47;;;;;;;0.67;0.47;;;10.20;1.00;;;;;;4795310;29;20461;-71
2023/01/09 00:11:15;;;;;;;0.50;0.10;;;10.20;1.00;;;;;;4805557;29;20500;-72
2023/01/09 00:13:44;;;;;;;0.50;0.10;;;10.20;1.00;;;;;;4806007;29;20458;-72
2023/01/09 00:16:12;;;;;;;0.50;0.10;;;10.20;1.00;;;;;;4808332;29;20458;-70
2023/01/09 00:18:40;;;;;;;0.50;0.10;;;10.20;1.00;;;;;;4790121;30;20459;-72
2023/01/09 00:21:10;;;;;;;0.50;0.10;;;10.20;1.00;;;;;;4792079;29;20479;-71
2023/01/09 00:23:39;;;;;;;0.50;0.10;;;10.20;1.00;;;;;;4790012;29;20495;-72
2023/01/09 00:26:09;;;;;;;0.50;0.10;;;10.20;1.00;;;;;;4788129;29;20455;-70
2023/01/09 00:28:38;;;;;;;0.50;0.10;;;10.20;1.00;;;;;;4787685;30;20466;-70
2023/01/09 00:31:07;;;;;;;0.50;0.10;;;10.20;1.00;;;;;;4789721;29;20518;-70
2023/01/09 00:33:38;;;;;;;0.50;0.10;;;10.20;1.00;;;;;;4789255;29;20486;-72
2023/01/09 00:36:07;;;;;;;0.50;0.10;;;10.20;1.00;;;;;;4788552;29;20478;-72
2023/01/09 00:38:36;;;;;;;0.50;0.10;;;10.10;1.00;;;;;;4787818;29;20496;-72
2023/01/09 00:41:07;;;;;;;0.50;0.10;;;10.10;1.00;;;;;;4787510;29;20474;-71
2023/01/09 00:43:42;;;;;;;0.50;0.10;;;10.10;1.00;;;;;;4788553;29;20494;-73
2023/01/09 00:46:10;;;;;;;0.50;0.10;;;10.10;1.00;;;;;;4787291;30;20463;-71
2023/01/09 00:48:41;;;;;;;0.50;0.10;;;10.10;1.00;;;;;;4787253;29;20462;-72
2023/01/09 00:51:09;;;;;;;0.50;0.10;;;10.10;1.00;;;;;;4786750;29;20482;-72
2023/01/09 00:53:39;;;;;;;0.50;0.10;;;10.10;1.00;;;;;;4787129;30;20459;-70
2023/01/09 00:56:11;;;;;;;0.50;0.20;;;10.10;1.00;;;;;;4787299;29;20463;-70
2023/01/09 00:58:38;;;;;;;0.50;0.20;;;10.10;1.00;;;;;;4787737;30;20459;-72
2023/01/09 05:00:41;;;;;;;0.60;0.20;;;8.60;99.90;;;;;;5759433;24;20384;-70
2023/01/09 05:03:08;;;;;;;0.50;0.10;;;8.60;99.90;;;;;;4809346;29;20465;-70
2023/01/09 05:05:36;;;;;;;0.50;0.10;;;8.40;99.90;;;;;;4819249;29;20450;-71
2023/01/09 05:08:05;;;;;;;0.50;0.10;;;8.40;99.90;;;;;;4813082;29;20462;-71
2023/01/09 05:10:32;;;;;;;0.50;0.10;;;8.40;1.00;;;;;;4826735;29;20541;-71
2023/01/09 05:13:00;;;;;;;0.50;0.20;;;8.40;1.00;;;;;;4858089;23;20990;-73
2023/01/09 05:15:29;;;;;;;0.50;0.10;;;8.40;1.00;;;;;;4829456;29;20902;-72
2023/01/09 05:17:58;;;;;;;0.50;0.10;;;8.40;1.00;;;;;;4835378;29;20548;-69
2023/01/09 05:20:26;;;;;;;0.60;0.60;;;8.40;1.00;;;;;;4834668;29;20957;-74
2023/01/09 05:22:54;;;;;;;0.60;0.60;;;8.30;99.90;;;;;;4843041;29;20524;-70
2023/01/09 05:25:22;;;;;;;0.50;0.10;;;8.30;1.00;;;;;;4845063;29;20496;-70
2023/01/09 05:27:50;;;;;;;0.60;0.20;;;7.20;1.00;;;;;;4838220;29;20476;-71
2023/01/09 05:30:18;;;;;;;0.50;0.10;;;8.30;1.00;;;;;;4831004;29;20465;-70
2023/01/09 05:32:46;;;;;;;0.50;0.10;;;8.30;1.00;;;;;;4843639;29;20489;-75
2023/01/09 05:35:15;;;;;;;0.50;0.10;;;8.30;1.00;;;;;;4855127;29;20483;-73
2023/01/09 05:37:43;;;;;;;0.50;0.10;;;8.40;1.00;;;;;;4856584;29;20474;-71
2023/01/09 05:40:12;;;;;;;0.50;0.10;;;8.30;1.00;;;;;;4842215;29;20460;-74
2023/01/09 05:42:41;;;;;;;0.50;0.10;;;8.40;1.00;;;;;;4836502;29;20458;-73
2023/01/09 05:45:10;;;;;;;0.50;0.10;;;8.40;1.00;;;;;;4837988;29;20530;-70
2023/01/09 05:47:39;;;;;;;23.53;4.73;;;8.50;1.00;;;;;;4832282;29;20952;-72
2023/01/09 05:50:07;;;;;;;0.50;0.10;;;8.50;1.00;;;;;;4829862;29;20519;-70
2023/01/09 05:52:36;;;;;;;0.50;0.20;;;8.50;1.00;;;;;;4828923;29;20494;-72
2023/01/09 05:55:05;;;;;;;0.50;0.10;;;8.40;99.90;;;;;;4826548;29;20478;-72
2023/01/09 05:57:33;;;;;;;0.50;0.10;;;8.30;99.90;;;;;;4826566;29;20449;-71
2023/01/09 06:00:01;;;;;;;0.50;0.10;;;8.30;99.90;;;;;;4825163;29;20831;-71
2023/01/09 06:02:29;;;;;;;0.50;0.10;;;8.30;99.90;;;;;;4825298;29;20457;-70
2023/01/09 06:04:57;;;;;;;0.50;0.10;;;8.30;99.90;;;;;;4826507;29;21045;-73
2023/01/09 06:07:25;;;;;;;0.50;0.10;;;8.40;99.90;;;;;;4825923;29;20956;-70
2023/01/09 06:09:54;;;;;;;0.50;0.10;;;8.40;99.90;;;;;;4841748;29;20452;-70
2023/01/09 06:12:22;;;;;;;0.50;0.10;;;8.40;99.90;;;;;;4839198;29;20968;-74
2023/01/09 06:14:50;;;;;;;0.50;0.10;;;8.40;99.90;;;;;;4828121;29;20576;-70
2023/01/09 06:17:17;;;;;;;0.50;0.10;;;8.30;99.90;;;;;;4830914;29;20937;-71
2023/01/09 06:19:45;;;;;;;0.50;0.10;;;8.30;99.90;;;;;;4835470;29;20442;-71
2023/01/09 06:22:13;;;;;;;0.50;0.10;;;8.30;99.90;;;;;;4833854;29;20945;-71
2023/01/09 06:24:41;;;;;;;0.50;0.10;;;8.30;99.90;;;;;;4829763;29;20485;-70
2023/01/09 06:27:11;;;;;;;0.50;0.10;;;8.30;99.90;;;;;;4831352;29;20448;-71
2023/01/09 06:29:39;;;;;;;0.50;0.10;;;8.40;99.90;;;;;;4828111;29;20450;-72
2023/01/09 06:32:07;;;;;;;0.50;0.10;;;8.40;99.90;;;;;;4827195;29;20454;-72
2023/01/09 06:34:35;;;;;;;0.50;0.10;;;8.40;99.90;;;;;;4834643;29;20473;-71
2023/01/09 06:37:03;;;;;;;0.50;0.10;;;7.10;99.90;;;;;;4839057;29;20461;-74
2023/01/09 06:39:32;;;;;;;0.50;0.10;;;;;;;;;;4826375;29;20468;-74
2023/01/09 06:42:00;;;;;;;0.50;0.20;;;8.60;99.90;;;;;;4826471;29;20453;-72
2023/01/09 06:44:35;;;;;;;0.50;0.10;;;8.60;99.90;;;;;;4824829;29;20485;-73
2023/01/09 06:47:05;;;;;;;0.50;0.10;;;8.60;99.90;;;;;;4836100;29;20839;-72
2023/01/09 06:49:33;;;;;;;0.50;0.10;;;8.50;99.90;;;;;;4827787;29;20453;-73
2023/01/09 06:52:04;;;;;;;0.50;0.10;;;8.60;99.90;;;;;;4838574;29;20480;-74
2023/01/09 06:54:32;;;;;;;0.50;0.10;;;8.70;99.90;;;;;;4835643;29;20855;-74
2023/01/09 06:57:00;;;;;;;0.50;0.10;;;8.60;99.90;;;;;;4826508;29;20467;-73
2023/01/09 06:59:28;;;;;;;2.77;2.47;;;8.50;99.90;;;;;;4830971;29;20457;-73
2023/01/09 07:01:58;;;;;;;0.50;0.10;;;8.50;99.90;;;;;;4843310;29;20455;-74
2023/01/09 07:04:26;;;;;;;0.50;0.10;;;8.40;99.90;;;;;;4849244;29;20487;-74
2023/01/09 07:06:54;;;;;;;0.50;0.10;;;8.50;99.90;;;;;;4845031;29;20465;-75
2023/01/09 07:09:21;;;;;;;0.50;0.10;;;8.50;99.90;;;;;;4828336;29;20449;-75
2023/01/09 07:11:52;;;;;;;0.60;0.20;;;8.60;99.90;;;;;;4828143;29;20453;-73
2023/01/09 07:14:23;;;;;;;0.50;0.10;;;8.60;99.90;;;;;;4827484;29;20985;-73
2023/01/09 07:16:51;;;;;;;0.50;0.10;;;8.60;99.90;;;;;;4827425;29;20487;-73
2023/01/09 07:19:20;;;;;;;0.50;0.10;;;8.60;99.90;;;;;;4829400;29;20462;-72
2023/01/09 07:21:48;;;;;;;0.80;0.60;;;8.60;99.90;;;;;;4838068;29;20450;-74
2023/01/09 07:24:16;;;;;;;0.50;0.10;;;8.50;99.90;;;;;;4840033;29;20477;-73
2023/01/09 07:26:43;;;;;;;0.50;0.10;;;8.50;99.90;;;;;;4839691;29;20449;-74
2023/01/09 07:29:11;;;;;;;0.50;0.10;;;8.50;99.90;;;;;;4835063;29;20464;-72
2023/01/09 07:31:39;;;;;;;0.50;0.10;;;8.60;99.90;;;;;;4827846;29;20453;-74
2023/01/09 07:34:07;;;;;;;0.50;0.10;;;8.60;99.90;;;;;;4831108;29;20528;-73
2023/01/09 07:36:36;;;;;;;0.50;0.20;;;8.70;99.90;;;;;;4843806;29;21042;-73
2023/01/09 07:39:05;;;;;;;0.80;0.40;;;8.70;99.90;;;;;;4836360;29;20467;-73
2023/01/09 07:41:33;;;;;;;0.50;0.10;;;8.70;99.90;;;;;;4839750;29;20489;-74
2023/01/09 07:44:01;;;;;;;0.50;0.10;;;8.70;99.90;;;;;;4838092;29;20502;-74
2023/01/09 07:46:30;;;;;;;0.50;0.10;;;8.60;99.90;;;;;;4832773;29;20547;-76
2023/01/09 07:48:57;;;;;;;0.50;0.10;;;8.70;99.90;;;;;;4815000;29;20978;-74
2023/01/09 07:51:25;;;;;;;0.50;0.10;;;8.60;99.90;;;;;;4826491;29;20457;-74
2023/01/09 07:53:54;;;;;;;0.50;0.10;;;8.70;99.90;;;;;;4826020;29;20489;-74
2023/01/09 07:56:22;;;;;;;0.50;0.20;;;8.60;99.90;;;;;;4825074;29;20472;-76
2023/01/09 07:58:50;;;;;;;0.50;0.10;;;8.50;99.90;;;;;;4826176;29;20461;-76
2023/01/09 08:01:18;;;;;;;0.60;0.50;;;8.50;99.90;;;;;;4823544;29;20477;-75
2023/01/09 08:03:46;;;;;;;0.50;0.10;;;8.40;99.90;;;;;;4822463;29;20496;-74
2023/01/09 08:06:16;;;;;;;0.50;0.10;;;;;;;;;;4825396;29;20488;-73
2023/01/09 08:08:45;;;;;;;0.50;0.10;;;8.50;99.90;;;;;;4824093;29;20951;-74
2023/01/09 08:11:14;;;;;;;0.50;0.20;;;8.60;99.90;;;;;;4824204;29;20987;-76
2023/01/09 08:13:44;;;;;;;0.50;0.10;;;8.60;99.90;;;;;;4834799;29;20499;-74
2023/01/09 08:16:12;;;;;;;0.50;0.10;;;8.60;99.90;;;;;;4827559;29;20454;-74
2023/01/09 08:18:40;;;;;;;0.50;0.10;;;8.70;99.90;;;;;;4825610;29;20635;-75
2023/01/09 08:21:10;;;;;;;0.50;0.10;;;8.60;99.90;;;;;;4829012;29;20445;-74
2023/01/09 08:23:37;;;;;;;0.50;0.10;;;8.60;99.90;;;;;;4830341;29;20525;-74
2023/01/09 08:26:05;;;;;;;0.50;0.10;;;8.60;99.90;;;;;;4832002;29;20499;-75
2023/01/09 08:28:35;;;;;;;0.50;0.10;;;8.50;99.90;;;;;;4835680;29;21033;-75
2023/01/09 08:31:02;;;;;;;0.50;0.10;;;8.40;99.90;;;;;;4834319;29;20495;-77
2023/01/09 08:33:31;;;;;;;0.50;0.10;;;;;;;;;;4830901;29;20469;-74
2023/01/09 08:35:59;;;;;;;0.50;0.20;;;8.30;99.90;;;;;;4830458;29;20500;-75
2023/01/09 08:38:29;;;;;;;0.50;0.10;;;8.40;99.90;;;;;;4830840;29;20446;-74
2023/01/09 08:40:57;;;;;;;0.50;0.10;;;8.50;99.90;;;;;;4830258;29;20465;-74
2023/01/09 08:49:05;;;;;;;0.60;0.30;;;8.60;99.90;;;;;;4830383;29;20457;-75
2023/01/09 08:51:33;;;;;;;0.50;0.10;;;8.60;99.90;;;;;;4829775;29;20823;-73
2023/01/09 08:54:07;;;;;;;0.50;0.30;;;;;;;;;;4831434;29;20465;-75
2023/01/09 08:56:36;;;;;;;0.50;0.10;;;;;;;;;;4842806;29;20850;-75
2023/01/09 08:59:11;;;;;;;1.37;0.97;;;;;;;;;;4842374;29;20475;-75
2023/01/09 09:01:45;;;;;;;0.50;0.10;;;;;;;;;;4846559;29;20453;-73
2023/01/09 09:04:19;;;;;;;3.17;0.47;;;;;;;;;;4839866;29;20495;-74
2023/01/09 09:06:51;;;;;;;0.70;0.20;;;;;;;;;;4832073;29;20492;-74
2023/01/09 09:09:24;;;;;;;1.73;0.43;;;;;;;;;;4841312;29;20448;-74
2023/01/09 09:11:55;;;;;;;0.50;0.10;;;;;;;;;;4815411;29;20838;-74
2023/01/09 09:17:19;;;;;;;0.50;0.20;;;;;;;;;;4828332;29;20552;-74
2023/01/09 09:19:51;;;;;;;0.50;0.10;;;;;;;;;;4828827;29;20468;-73
2023/01/09 09:22:24;;;;;;;0.50;0.20;;;;;;;;;;4830352;29;20529;-75
2023/01/09 09:25:05;;;;;;;0.50;0.20;;;;;;;;;;4834076;29;20510;-74
2023/01/09 09:27:52;;;;;;;0.50;0.20;;;;;;;;;;4832357;29;20483;-74
2023/01/09 09:30:21;;;;;;;0.50;0.20;;;;;;;;;;4829376;29;20442;-75
2023/01/09 09:32:52;;;;;;;0.50;0.10;;;;;;;;;;4843004;29;20518;-75
2023/01/09 09:35:24;;;;;;;0.50;0.10;;;;;;;;;;4837693;29;20489;-75
2023/01/09 09:37:56;;;;;;;0.67;0.30;;;;;;;;;;4825334;29;20884;-72
2023/01/09 09:40:31;;;;;;;0.50;0.20;;;;;;;;;;4827934;29;20465;-74
2023/01/09 09:46:22;;;;;;;0.50;0.10;;;9.00;99.90;;;;;;4807681;29;20490;-74
2023/01/09 09:48:55;;;;;;;0.50;0.10;;;8.90;99.90;;;;;;4830267;29;20496;-72
2023/01/09 09:51:50;;;;;;;0.50;0.10;;;8.80;99.90;;;;;;4841643;29;20807;-73
2023/01/09 09:54:24;;;;;;;0.50;0.10;;;8.80;99.90;;;;;;4807299;29;21178;-74
2023/01/09 09:56:56;;;;;;;0.50;0.20;;;8.80;99.90;;;;;;4821184;29;20821;-73
2023/01/09 09:59:26;;;;;;;0.63;0.30;;;8.80;99.90;;;;;;4834467;29;21175;-74
2023/01/09 10:01:58;;;;;;;0.50;0.10;;;8.80;99.90;;;;;;4839418;29;20444;-73
2023/01/09 10:04:31;;;;;;;1.57;0.60;;;8.70;99.90;;;;;;4845616;29;20477;-74
2023/01/09 10:07:04;;;;;;;0.50;0.20;;;8.60;99.90;;;;;;4832989;29;20489;-72
2023/01/09 10:09:42;;;;;;;0.50;0.20;;;8.60;99.90;;;;;;4842542;29;21048;-73
2023/01/09 10:12:24;;;;;;;0.50;0.10;;;8.70;99.90;;;;;;4847799;29;20468;-72
2023/01/09 10:14:52;;;;;;;0.60;0.33;;;8.60;99.90;;;;;;4832769;29;20481;-74
2023/01/09 10:17:38;;;;;;;0.50;0.10;;;8.70;99.90;;;;;;4831084;29;20518;-72
2023/01/09 10:20:33;;;;;;;1.37;1.27;;;8.70;99.90;;;;;;4825680;29;20476;-76
2023/01/09 10:23:16;;;;;;;0.50;0.10;;;8.60;99.90;;;;;;4820265;29;20445;-74
2023/01/09 10:25:49;;;;;;;0.50;0.10;;;8.60;99.90;;;;;;4827403;29;20532;-77
2023/01/09 10:28:29;;;;;;;7.83;0.70;;;8.60;99.90;;;;;;4825934;29;20570;-73
2023/01/09 10:31:02;;;;;;;0.60;0.37;;;8.20;99.90;;;;;;4826125;29;20510;-76
2023/01/09 10:33:46;;;;;;;0.60;0.40;;;8.60;99.90;;;;;;4826021;29;20517;-76
2023/01/09 10:36:34;;;;;;;0.50;0.10;;;8.60;99.90;;;;;;4825816;29;20465;-75
2023/01/09 10:39:07;;;;;;;0.50;0.10;;;8.60;99.90;;;;;;4828165;29;20517;-76
2023/01/09 10:41:40;;;;;;;0.50;0.10;;;8.60;99.90;;;;;;4830339;29;20472;-76
2023/01/09 10:44:16;;;;;;;0.50;0.10;;;8.70;99.90;;;;;;4826446;29;20509;-76
2023/01/09 10:46:49;;;;;;;0.60;0.40;;;8.60;99.90;;;;;;4825527;29;21034;-74
2023/01/09 10:49:18;;;;;;;0.50;0.10;;;8.70;99.90;;;;;;4825789;29;20457;-76
2023/01/09 10:51:49;;;;;;;0.50;0.10;;;8.70;99.90;;;;;;4831600;29;20457;-76
2023/01/09 10:54:20;;;;;;;0.50;0.10;;;8.80;99.90;;;;;;4834337;29;20473;-74
2023/01/09 10:56:55;;;;;;;0.60;0.20;;;8.70;99.90;;;;;;4826118;29;20453;-76
2023/01/09 10:59:23;;;;;;;0.50;0.10;;;8.80;99.90;;;;;;4826765;29;20452;-76
2023/01/09 11:01:51;;;;;;;0.50;0.10;;;8.80;99.90;;;;;;4826371;29;20913;-75
2023/01/09 11:04:24;;;;;;;0.50;0.10;;;8.80;99.90;;;;;;4826500;29;20480;-76
2023/01/09 11:06:59;;;;;;;0.50;0.10;;;8.80;99.90;;;;;;4825352;29;20477;-74
2023/01/09 11:09:28;;;;;;;0.50;0.10;;;;;;;;;;4827587;29;20456;-75
2023/01/09 11:11:55;;;;;;;0.50;0.10;;;9.00;99.90;;;;;;4828129;29;20629;-76
2023/01/09 11:14:30;;;;;;;0.50;0.10;;;9.10;99.90;;;;;;4825478;29;21008;-76
2023/01/09 11:17:00;;;;;;;0.67;0.40;;;9.10;99.90;;;;;;4826022;29;20511;-76
2023/01/09 11:19:29;;;;;;;0.60;0.27;;;9.20;99.90;;;;;;4825441;29;20564;-77
2023/01/09 11:22:09;;;;;;;0.50;0.10;;;9.30;99.90;;;;;;4826310;29;20461;-76
2023/01/09 11:24:37;;;;;;;0.50;0.20;;;9.30;99.90;;;;;;4825424;29;20488;-76
2023/01/09 11:27:22;;;;;;;0.50;0.10;;;9.30;99.90;;;;;;4825944;29;20493;-75
2023/01/09 11:30:15;;;;;;;0.50;0.10;;;9.30;99.90;;;;;;4827195;29;20499;-75
2023/01/09 11:32:45;;;;;;;2.63;0.50;;;9.30;99.90;;;;;;4837406;29;20449;-75
2023/01/09 11:35:20;;;;;;;0.50;0.10;;;9.30;99.90;;;;;;4829723;29;20467;-71
2023/01/09 11:37:51;;;;;;;0.50;0.20;;;;;;;;;;4828219;29;20448;-75
2023/01/09 11:40:21;;;;;;;0.50;0.10;;;9.20;99.90;;;;;;4852319;24;20500;-68
2023/01/09 11:43:17;;;;;;;0.60;0.50;;;9.20;99.90;;;;;;4852541;29;20460;-68
2023/01/09 11:45:50;;;;;;;0.50;0.20;;;9.40;99.90;;;;;;4860982;29;20455;-69
2023/01/09 11:48:33;;;;;;;0.50;0.20;;;;;;;;;;4860439;29;20497;-70
2023/01/09 11:51:03;;;;;;;1.20;0.63;;;9.50;99.90;;;;;;4833609;29;20541;-69
2023/01/09 11:54:05;;;;;;;0.50;0.10;;;9.60;99.90;;;;;;4835229;29;20829;-70
2023/01/09 11:56:34;;;;;;;0.80;0.50;;;9.70;99.90;;;;;;4819393;29;20465;-69
2023/01/09 11:59:01;;;;;;;0.60;0.30;;;9.90;99.90;;;;;;4834085;29;20453;-68
2023/01/09 12:02:03;;;;;;;0.50;0.10;;;9.70;99.90;;;;;;4830583;29;20988;-69
2023/01/09 12:04:35;;;;;;;0.50;0.20;;;9.70;99.90;;;;;;4822241;29;20510;-70
2023/01/09 12:07:23;;;;;;;0.50;0.10;;;9.80;99.90;;;;;;4823247;29;20488;-70
2023/01/09 12:10:02;;;;;;;0.50;0.10;;;9.70;99.90;;;;;;4833999;29;20854;-70
2023/01/09 12:12:40;;;;;;;0.50;0.20;;;9.80;99.90;;;;;;4841316;29;20812;-70
2023/01/09 12:15:21;;;;;;;0.50;0.10;;;9.90;99.90;;;;;;4831382;29;20441;-70
2023/01/09 12:18:22;;;;;;;0.50;0.30;;;10.00;99.90;;;;;;4824752;29;20467;-68
2023/01/09 12:21:05;;;;;;;0.50;0.20;;;10.00;99.90;;;;;;4822403;29;20483;-71
2023/01/09 12:23:49;;;;;;;0.60;0.20;;;10.00;99.90;;;;;;4837624;29;20452;-69
2023/01/09 12:26:22;;;;;;;1.03;0.93;;;9.70;99.90;;;;;;4836792;29;20900;-69
2023/01/09 12:29:16;;;;;;;0.50;0.23;;;9.60;99.90;;;;;;4833561;29;20941;-69
2023/01/09 12:32:03;;;;;;;0.50;0.10;;;9.60;99.90;;;;;;4824862;29;20492;-68
2023/01/09 12:34:45;;;;;;;0.50;0.20;;;9.60;99.90;;;;;;4825178;29;20969;-68
2023/01/09 12:37:29;;;;;;;0.50;0.10;;;9.40;99.90;;;;;;4823182;29;20451;-68
2023/01/09 12:40:07;;;;;;;0.50;0.10;;;9.30;99.90;;;;;;4822532;29;20480;-69
2023/01/09 12:42:47;;;;;;;0.50;0.17;;;9.20;99.90;;;;;;4831376;29;20452;-70
2023/01/09 12:45:34;;;;;;;0.50;0.10;;;9.20;99.90;;;;;;4823067;29;20453;-70
2023/01/09 12:48:12;;;;;;;0.50;0.10;;;9.30;99.90;;;;;;4820747;29;21031;-68
2023/01/09 12:50:56;;;;;;;0.60;0.20;;;10.40;99.90;;;;;;4821862;29;20714;-70
2023/01/09 12:53:28;;;;;;;0.50;0.20;;;9.30;99.90;;;;;;4822020;29;20513;-69
2023/01/09 12:56:01;;;;;;;0.50;0.10;;;9.40;99.90;;;;;;4821895;29;20954;-68
2023/01/09 12:58:35;;;;;;;0.50;0.10;;;9.40;99.90;;;;;;4822293;29;20949;-68
2023/01/09 13:01:08;;;;;;;0.50;0.10;;;9.40;99.90;;;;;;4821468;29;20468;-70
2023/01/09 13:03:41;;;;;;;0.50;0.20;;;9.40;99.90;;;;;;4815945;29;20472;-69
2023/01/09 13:06:15;;;;;;;0.50;0.20;;;9.60;99.90;;;;;;4822665;29;20465;-71
2023/01/09 13:08:48;;;;;;;0.50;0.10;;;9.60;99.90;;;;;;4832525;29;20498;-70
2023/01/09 13:11:19;;;;;;;0.50;0.10;;;9.70;99.90;;;;;;4843805;29;20477;-69
2023/01/09 13:13:54;;;;;;;129.67;11.33;;;9.70;99.90;;;;;;4839088;29;20467;-70
2023/01/09 13:16:27;;;;;;;0.50;0.20;;;10.00;99.90;;;;;;4825305;29;20462;-70
2023/01/09 13:19:00;;;;;;;0.50;0.10;;;10.10;99.90;;;;;;4825615;29;20548;-70
2023/01/09 13:21:28;;;;;;;0.50;0.10;;;10.10;99.90;;;;;;4825569;29;20477;-68
2023/01/09 13:24:01;;;;;;;0.50;0.10;;;10.00;99.90;;;;;;4825575;29;20981;-70
2023/01/09 13:26:32;;;;;;;0.50;0.10;;;10.00;99.90;;;;;;4824834;29;20461;-70
2023/01/09 13:29:09;;;;;;;0.50;0.10;;;9.80;99.90;;;;;;4825326;29;20489;-69
2023/01/09 13:32:00;;;;;;;0.50;0.20;;;9.80;99.90;;;;;;4825457;29;20825;-69
2023/01/09 13:34:31;;;;;;;1.53;0.30;;;9.70;99.90;;;;;;4825562;29;20945;-69
2023/01/09 13:36:59;;;;;;;0.50;0.10;;;9.70;99.90;;;;;;4825400;29;20463;-69
2023/01/09 13:39:31;;;;;;;0.50;0.10;;;9.80;99.90;;;;;;4825687;29;20592;-70
2023/01/09 13:44:49;;;;;;;1.47;0.30;;;9.80;99.90;;;;;;4826329;29;20487;-69
2023/01/09 13:47:20;;;;;;;0.50;0.10;;;9.70;99.90;;;;;;4824172;29;20838;-70
2023/01/09 13:50:00;;;;;;;0.50;0.10;;;9.60;99.90;;;;;;4824562;29;20501;-69
2023/01/09 13:52:31;;;;;;;0.70;0.27;;;9.60;99.90;;;;;;4824164;29;20517;-68
2023/01/09 13:55:34;;;;;;;0.50;0.10;;;9.50;99.90;;;;;;4823595;29;20465;-68
2023/01/09 13:58:26;;;;;;;0.50;0.20;;;9.50;99.90;;;;;;4823625;29;20955;-69
2023/01/09 14:01:01;;;;;;;0.50;0.10;;;9.50;99.90;;;;;;4824945;29;20481;-70
2023/01/09 14:03:33;;;;;;;0.80;0.23;;;9.50;99.90;;;;;;4825667;29;20472;-69
2023/01/09 14:06:20;;;;;;;0.50;0.10;;;9.50;99.90;;;;;;4830746;29;20470;-72
2023/01/09 14:08:50;;;;;;;0.50;0.10;;;9.50;99.90;;;;;;4843188;29;20484;-69
2023/01/09 14:11:26;;;;;;;0.60;0.23;;;9.50;99.90;;;;;;4841526;29;20473;-68
2023/01/09 14:14:04;;;;;;;0.50;0.10;;;9.50;99.90;;;;;;4834934;29;20461;-68
2023/01/09 14:16:35;;;;;;;0.50;0.10;;;9.50;99.90;;;;;;4824669;29;20467;-68
2023/01/09 14:19:09;;;;;;;0.50;0.10;;;9.70;99.90;;;;;;4823353;29;20459;-68
2023/01/09 14:21:50;;;;;;;0.50;0.10;;;9.70;99.90;;;;;;4824060;29;20573;-68
2023/01/09 14:24:26;;;;;;;0.50;0.10;;;9.70;99.90;;;;;;4823909;29;20457;-70
2023/01/09 14:26:56;;;;;;;0.50;0.10;;;9.60;99.90;;;;;;4823957;29;20464;-69
2023/01/09 14:29:43;;;;;;;0.50;0.10;;;9.50;99.90;;;;;;4823765;29;20493;-69
2023/01/09 14:32:44;;;;;;;0.50;0.10;;;9.40;99.90;;;;;;4824030;29;20457;-70
2023/01/09 14:35:26;;;;;;;0.50;0.10;;;9.40;99.90;;;;;;4824117;29;20466;-69
2023/01/09 14:38:04;;;;;;;0.50;0.10;;;9.60;99.90;;;;;;4824267;29;20924;-68
2023/01/09 14:40:33;;;;;;;0.50;0.10;;;9.60;99.90;;;;;;4821667;29;20488;-69
2023/01/09 14:43:12;;;;;;;0.50;0.10;;;9.60;99.90;;;;;;4824253;29;20453;-68
2023/01/09 14:45:46;;;;;;;0.60;0.40;;;9.60;99.90;;;;;;4830853;29;20469;-70
2023/01/09 14:48:18;;;;;;;0.50;0.10;;;9.50;99.90;;;;;;4841577;29;20528;-68
2023/01/09 14:50:53;;;;;;;0.50;0.10;;;9.40;99.90;;;;;;4841341;29;20551;-70
2023/01/09 14:53:24;;;;;;;0.50;0.10;;;9.50;99.90;;;;;;4829691;29;20519;-69
2023/01/09 14:55:53;;;;;;;0.50;0.10;;;9.50;99.90;;;;;;4830531;29;20532;-68
2023/01/09 14:58:23;;;;;;;0.50;0.10;;;9.40;99.90;;;;;;4834861;29;20472;-69
2023/01/09 15:00:57;;;;;;;0.50;0.20;;;9.40;99.90;;;;;;4841495;29;20536;-71
2023/01/09 15:03:29;;;;;;;0.50;0.10;;;9.40;99.90;;;;;;4804204;29;20577;-68
2023/01/09 15:05:57;;;;;;;0.50;0.10;;;9.40;99.90;;;;;;4803443;29;20539;-70
2023/01/09 15:08:27;;;;;;;0.50;0.10;;;9.40;99.90;;;;;;4835700;29;20493;-71
2023/01/09 15:10:57;;;;;;;1.27;0.87;;;9.30;99.90;;;;;;4816636;29;20481;-70
2023/01/09 15:13:28;;;;;;;0.60;0.30;;;;;;;;;;4823293;29;20482;-71
2023/01/09 15:15:57;;;;;;;0.50;0.13;;;;;;;;;;4823444;29;20453;-69
2023/01/09 15:18:30;;;;;;;0.50;0.10;;;9.20;99.90;;;;;;4823413;29;20517;-67
2023/01/09 15:21:01;;;;;;;0.90;0.53;;;9.20;99.90;;;;;;4828012;29;20887;-71
2023/01/09 15:23:30;;;;;;;0.50;0.10;;;9.20;99.90;;;;;;4823329;29;20777;-70
2023/01/09 15:26:13;;;;;;;0.50;0.10;;;9.20;99.90;;;;;;4832084;29;20935;-68
2023/01/09 15:28:43;;;;;;;0.50;0.10;;;9.20;99.90;;;;;;4835380;29;20484;-69
2023/01/09 15:31:15;;;;;;;0.50;0.10;;;9.20;99.90;;;;;;4840893;29;20478;-71
2023/01/09 15:33:46;;;;;;;0.50;0.10;;;9.20;99.90;;;;;;4836053;29;20464;-70
2023/01/09 15:36:19;;;;;;;0.50;0.10;;;9.10;99.90;;;;;;4822994;29;20454;-68
2023/01/09 15:38:48;;;;;;;0.50;0.20;;;9.10;99.90;;;;;;4823169;29;20448;-68
2023/01/09 15:42:53;;;;;;;0.50;0.10;;;9.10;99.90;;;;;;4821638;29;20495;-70
2023/01/09 15:44:13;;;;;;;0.50;0.10;;;9.10;99.90;;;;;;4822857;29;20985;-69
2023/01/09 15:46:45;;;;;;;0.50;0.10;;;9.10;99.90;;;;;;4823309;29;20453;-68
2023/01/09 15:49:14;;;;;;;0.50;0.10;;;9.10;99.90;;;;;;4823243;29;20489;-69
2023/01/09 15:51:45;;;;;;;0.50;0.10;;;9.10;99.90;;;;;;4824645;29;20890;-67
2023/01/09 15:54:15;;;;;;;0.50;0.20;;;9.10;99.90;;;;;;4840703;29;20919;-69
2023/01/09 15:56:45;;;;;;;0.50;0.10;;;9.00;99.90;;;;;;4831548;29;20472;-69
2023/01/09 15:59:25;;;;;;;0.50;0.20;;;9.00;99.90;;;;;;4822653;29;20458;-70
2023/01/09 16:04:43;;;;;;;0.50;0.10;;;;;;;;;;4820620;29;20465;-67
2023/01/09 16:07:15;;;;;;;0.50;0.10;;;8.90;99.90;;;;;;4830449;29;20456;-71
2023/01/09 16:09:46;;;;;;;0.50;0.20;;;8.90;99.90;;;;;;4837364;29;20914;-67
2023/01/09 16:12:19;;;;;;;0.50;0.20;;;8.90;99.90;;;;;;4839804;29;20457;-70
2023/01/09 16:14:52;;;;;;;0.50;0.10;;;8.90;99.90;;;;;;4839943;29;20535;-68
2023/01/09 16:17:22;;;;;;;0.50;0.10;;;8.90;99.90;;;;;;4823909;29;20458;-70
2023/01/09 16:19:53;;;;;;;0.50;0.10;;;8.90;99.90;;;;;;4820929;29;20465;-73
2023/01/09 16:22:22;;;;;;;0.50;0.10;;;8.90;99.90;;;;;;4821499;29;20476;-70
2023/01/09 16:24:52;;;;;;;1.00;0.47;;;8.80;99.90;;;;;;4822440;29;20454;-71
2023/01/09 16:27:22;;;;;;;0.50;0.10;;;8.80;99.90;;;;;;4822639;29;20456;-68
2023/01/09 16:29:53;;;;;;;0.50;0.10;;;8.80;99.90;;;;;;4822284;29;20493;-71
2023/01/09 16:32:27;;;;;;;0.50;0.10;;;8.80;99.90;;;;;;4822675;29;20461;-68
2023/01/09 16:34:58;;;;;;;0.50;0.10;;;8.80;99.90;;;;;;4822172;29;20468;-68
2023/01/09 16:37:27;;;;;;;2.13;0.40;;;8.80;99.90;;;;;;4826885;29;20816;-68
2023/01/09 16:40:23;;;;;;;0.50;0.10;;;8.80;99.90;;;;;;4821944;29;21001;-70
2023/01/09 16:43:07;;;;;;;0.50;0.10;;;8.70;99.90;;;;;;4803503;29;20870;-69
2023/01/09 16:45:37;;;;;;;0.50;0.10;;;8.70;99.90;;;;;;4826301;29;20452;-69
2023/01/09 16:48:12;;;;;;;4.20;0.50;;;8.60;99.90;;;;;;4825849;29;20457;-67
2023/01/09 16:50:41;;;;;;;0.50;0.10;;;8.50;99.90;;;;;;4825281;29;20495;-74
2023/01/09 16:53:15;;;;;;;0.50;0.10;;;8.50;99.90;;;;;;4837883;29;21030;-71
2023/01/09 16:55:43;;;;;;;0.57;0.37;;;8.40;99.90;;;;;;4836531;29;20484;-69
2023/01/09 16:58:14;;;;;;;0.50;0.10;;;8.40;99.90;;;;;;4843541;29;20462;-70
2023/01/09 17:00:45;;;;;;;0.50;0.30;;;8.30;99.90;;;;;;4825880;29;20501;-69
2023/01/09 17:03:14;;;;;;;0.50;0.20;;;8.20;99.90;;;;;;4825912;29;20453;-68
2023/01/09 17:05:44;;;;;;;0.50;0.10;;;8.20;99.90;;;;;;4825628;29;20476;-68
2023/01/09 17:08:20;;;;;;;0.50;0.20;;;8.10;99.90;;;;;;4829094;29;20456;-70
2023/01/09 17:10:48;;;;;;;0.50;0.10;;;8.10;99.90;;;;;;4839743;29;20499;-69
2023/01/09 17:13:16;;;;;;;0.50;0.10;;;8.10;99.90;;;;;;4825453;29;20461;-70
2023/01/09 17:15:44;;;;;;;0.50;0.10;;;8.10;99.90;;;;;;4825189;29;20464;-68
2023/01/09 17:18:15;;;;;;;0.50;0.10;;;8.10;99.90;;;;;;4825549;29;20698;-70
2023/01/09 17:20:45;;;;;;;0.50;0.10;;;8.10;99.90;;;;;;4825317;29;20477;-68
2023/01/09 17:23:13;;;;;;;0.50;0.20;;;8.10;99.90;;;;;;4824375;29;20527;-67
2023/01/09 17:28:34;;;;;;;0.50;0.20;;;8.00;99.90;;;;;;4825089;29;20449;-69
2023/01/09 17:31:05;;;;;;;0.50;0.10;;;8.00;99.90;;;;;;4824968;29;20531;-68
2023/01/09 17:33:33;;;;;;;0.60;0.30;;;8.00;99.90;;;;;;4825209;29;20555;-66
2023/01/09 17:36:03;;;;;;;0.50;0.10;;;8.00;99.90;;;;;;4825273;29;20460;-67
2023/01/09 17:38:31;;;;;;;0.50;0.10;;;7.90;99.90;;;;;;4825294;29;20965;-67
2023/01/09 17:40:59;;;;;;;0.60;0.40;;;8.00;99.90;;;;;;4825109;29;20484;-68
2023/01/09 17:43:27;;;;;;;0.63;0.47;;;7.90;99.90;;;;;;4825356;29;20476;-66
2023/01/09 17:45:55;;;;;;;0.50;0.20;;;7.90;99.90;;;;;;4815497;29;21027;-68
2023/01/09 17:48:23;;;;;;;0.50;0.10;;;7.90;99.90;;;;;;4824890;29;20461;-68
2023/01/09 17:50:51;;;;;;;1.00;0.50;;;7.90;99.90;;;;;;4824629;29;20489;-68
2023/01/09 17:53:21;;;;;;;0.60;0.30;;;8.00;99.90;;;;;;4823735;29;20457;-68